TUI3YJ EDDF-LGRP
Flight info
| Callsign | TUI3YJ |
|---|---|
| Flight time | N/A |
| Altitude | 35000 |
| Route | CINDY8S/18 CINDY Z74 LAMPU DCT NOMBO Y161 MAH DCT VAVOR DCT RADIZ DCT GORPA DCT DEVUL DCT LIKVI DCT REMSO DCT MEDUX UM867 KOGAT DCT ERANA DCT TSL UN130 MES UN139 LURUS UL995 USINI L995 CODIC |
| Aircraft | B738/M-SDE2E3FGHIRWXY/LB1 |
Departure
| Time | N/A |
|---|---|
| Airport | Frankfurt Main Airport (EDDF) |
Arrival
| Time | 2026-04-27 17:32 |
|---|---|
| Airport | Rhodes International Airport "Diagoras" (LGRP) |
| Time | Latitude | Longitude | Altitude | Speed | Heading |
|---|---|---|---|---|---|
| 2026-04-27 16:57 | 38.49709 | 25.59551 | 35077 ft | 477 kts | 136° |
| 2026-04-27 16:58 | 38.44999 | 25.65519 | 35078 ft | 477 kts | 136° |
| 2026-04-27 16:58 | 38.40290 | 25.71476 | 35062 ft | 477 kts | 136° |
| 2026-04-27 16:59 | 38.35582 | 25.77426 | 35060 ft | 477 kts | 136° |
| 2026-04-27 16:59 | 38.30886 | 25.83393 | 35057 ft | 476 kts | 136° |
| 2026-04-27 17:00 | 38.23261 | 25.91364 | 35058 ft | 472 kts | 154° |
| 2026-04-27 17:01 | 38.18224 | 25.93935 | 35066 ft | 469 kts | 163° |
| 2026-04-27 17:01 | 38.12041 | 25.96633 | 35042 ft | 470 kts | 163° |
| 2026-04-27 17:02 | 38.05870 | 25.99375 | 35052 ft | 470 kts | 162° |
| 2026-04-27 17:02 | 37.99703 | 26.02162 | 35049 ft | 471 kts | 162° |
| 2026-04-27 17:03 | 37.93580 | 26.05116 | 35038 ft | 473 kts | 154° |
| 2026-04-27 17:03 | 37.88068 | 26.09691 | 35040 ft | 475 kts | 146° |
| 2026-04-27 17:04 | 37.82684 | 26.14536 | 35042 ft | 475 kts | 146° |
| 2026-04-27 17:04 | 37.77990 | 26.18705 | 35047 ft | 475 kts | 146° |
| 2026-04-27 17:05 | 37.72555 | 26.23463 | 35051 ft | 476 kts | 147° |
| 2026-04-27 17:05 | 37.67102 | 26.28204 | 35039 ft | 476 kts | 147° |
| 2026-04-27 17:06 | 37.61645 | 26.32938 | 35035 ft | 476 kts | 147° |
| 2026-04-27 17:06 | 37.56188 | 26.37665 | 35039 ft | 476 kts | 147° |
| 2026-04-27 17:07 | 37.50730 | 26.42387 | 35026 ft | 476 kts | 147° |
| 2026-04-27 17:07 | 37.45271 | 26.47102 | 35022 ft | 476 kts | 147° |
| 2026-04-27 17:08 | 37.39814 | 26.51806 | 35013 ft | 475 kts | 147° |
| 2026-04-27 17:08 | 37.34356 | 26.56503 | 35012 ft | 475 kts | 147° |
| 2026-04-27 17:09 | 37.28901 | 26.61189 | 35017 ft | 475 kts | 147° |
| 2026-04-27 17:09 | 37.23444 | 26.65868 | 35002 ft | 475 kts | 147° |
| 2026-04-27 17:10 | 37.18028 | 26.70504 | 35005 ft | 475 kts | 147° |
| 2026-04-27 17:10 | 37.12578 | 26.75160 | 34989 ft | 469 kts | 147° |
| 2026-04-27 17:10 | 37.09929 | 26.77423 | 34978 ft | 454 kts | 147° |
| 2026-04-27 17:11 | 37.07359 | 26.79616 | 34971 ft | 440 kts | 147° |
| 2026-04-27 17:11 | 37.02440 | 26.83817 | 34929 ft | 415 kts | 147° |
| 2026-04-27 17:11 | 37.00043 | 26.85853 | 34987 ft | 418 kts | 147° |
| 2026-04-27 17:12 | 36.95134 | 26.90011 | 34586 ft | 442 kts | 147° |
| 2026-04-27 17:12 | 36.92533 | 26.92212 | 34006 ft | 454 kts | 147° |
| 2026-04-27 17:12 | 36.89919 | 26.94428 | 33334 ft | 454 kts | 147° |
| 2026-04-27 17:13 | 36.87305 | 26.96645 | 32675 ft | 455 kts | 147° |
| 2026-04-27 17:13 | 36.84683 | 26.98866 | 32034 ft | 456 kts | 147° |
| 2026-04-27 17:13 | 36.82061 | 27.01085 | 31407 ft | 456 kts | 147° |
| 2026-04-27 17:13 | 36.79428 | 27.03310 | 30733 ft | 458 kts | 147° |
| 2026-04-27 17:14 | 36.76784 | 27.05543 | 30094 ft | 459 kts | 147° |
| 2026-04-27 17:14 | 36.74137 | 27.07777 | 29332 ft | 460 kts | 147° |
| 2026-04-27 17:14 | 36.71490 | 27.10019 | 28590 ft | 460 kts | 145° |
| 2026-04-27 17:14 | 36.69063 | 27.12603 | 27853 ft | 460 kts | 134° |
| 2026-04-27 17:15 | 36.67052 | 27.15698 | 27163 ft | 460 kts | 124° |
| 2026-04-27 17:15 | 36.65487 | 27.19160 | 26462 ft | 458 kts | 113° |
| 2026-04-27 17:15 | 36.64243 | 27.22808 | 25811 ft | 457 kts | 112° |
| 2026-04-27 17:15 | 36.63010 | 27.26446 | 25149 ft | 456 kts | 112° |
| 2026-04-27 17:16 | 36.61769 | 27.30074 | 24506 ft | 455 kts | 112° |
| 2026-04-27 17:16 | 36.60606 | 27.33722 | 23874 ft | 451 kts | 109° |
| 2026-04-27 17:16 | 36.59573 | 27.37374 | 23173 ft | 444 kts | 108° |
| 2026-04-27 17:16 | 36.58607 | 27.40977 | 22464 ft | 435 kts | 107° |
| 2026-04-27 17:17 | 36.57667 | 27.44517 | 21745 ft | 427 kts | 107° |
| 2026-04-27 17:17 | 36.56738 | 27.47985 | 21052 ft | 419 kts | 107° |
| 2026-04-27 17:17 | 36.55812 | 27.51392 | 20378 ft | 412 kts | 108° |
| 2026-04-27 17:18 | 36.53978 | 27.58037 | 19067 ft | 400 kts | 108° |
| 2026-04-27 17:18 | 36.53073 | 27.61286 | 18433 ft | 395 kts | 108° |
| 2026-04-27 17:18 | 36.52179 | 27.64488 | 17789 ft | 389 kts | 108° |
| 2026-04-27 17:18 | 36.51297 | 27.67641 | 17176 ft | 382 kts | 108° |
| 2026-04-27 17:19 | 36.50430 | 27.70735 | 16608 ft | 375 kts | 108° |
| 2026-04-27 17:19 | 36.49579 | 27.73771 | 16045 ft | 369 kts | 108° |
| 2026-04-27 17:19 | 36.48739 | 27.76762 | 15504 ft | 364 kts | 108° |
| 2026-04-27 17:19 | 36.47913 | 27.79704 | 14962 ft | 358 kts | 108° |
| 2026-04-27 17:20 | 36.47096 | 27.82609 | 14434 ft | 354 kts | 108° |
| 2026-04-27 17:20 | 36.46290 | 27.85471 | 13937 ft | 348 kts | 108° |
| 2026-04-27 17:20 | 36.45497 | 27.88285 | 13426 ft | 342 kts | 108° |
| 2026-04-27 17:20 | 36.44719 | 27.91045 | 12910 ft | 336 kts | 108° |
| 2026-04-27 17:21 | 36.43954 | 27.93751 | 12468 ft | 328 kts | 109° |
| 2026-04-27 17:21 | 36.43207 | 27.96395 | 12032 ft | 321 kts | 109° |
| 2026-04-27 17:21 | 36.42474 | 27.98986 | 11602 ft | 315 kts | 109° |
| 2026-04-27 17:21 | 36.41755 | 28.01526 | 11175 ft | 309 kts | 109° |
| 2026-04-27 17:22 | 36.41048 | 28.04020 | 10785 ft | 303 kts | 109° |
| 2026-04-27 17:22 | 36.40355 | 28.06462 | 10406 ft | 297 kts | 109° |
| 2026-04-27 17:22 | 36.39674 | 28.08860 | 10051 ft | 291 kts | 109° |
| 2026-04-27 17:22 | 36.39008 | 28.11205 | 9669 ft | 286 kts | 109° |
| 2026-04-27 17:23 | 36.38407 | 28.13529 | 9282 ft | 280 kts | 99° |
| 2026-04-27 17:23 | 36.38341 | 28.15920 | 8889 ft | 275 kts | 87° |
| 2026-04-27 17:23 | 36.38462 | 28.18274 | 8478 ft | 272 kts | 85° |
| 2026-04-27 17:23 | 36.38603 | 28.20601 | 8076 ft | 269 kts | 85° |
| 2026-04-27 17:24 | 36.38746 | 28.22902 | 7683 ft | 266 kts | 85° |
| 2026-04-27 17:24 | 36.38888 | 28.25181 | 7292 ft | 264 kts | 85° |
| 2026-04-27 17:24 | 36.39029 | 28.27439 | 6900 ft | 261 kts | 85° |
| 2026-04-27 17:24 | 36.39167 | 28.29677 | 6524 ft | 259 kts | 85° |
| 2026-04-27 17:25 | 36.39302 | 28.31897 | 6124 ft | 257 kts | 85° |
| 2026-04-27 17:25 | 36.39435 | 28.34102 | 5727 ft | 255 kts | 85° |
| 2026-04-27 17:25 | 36.39568 | 28.36290 | 5343 ft | 253 kts | 85° |
| 2026-04-27 17:25 | 36.39845 | 28.38426 | 4952 ft | 250 kts | 67° |
| 2026-04-27 17:26 | 36.40851 | 28.40129 | 4585 ft | 245 kts | 36° |
| 2026-04-27 17:26 | 36.42391 | 28.40930 | 4246 ft | 240 kts | 5° |
| 2026-04-27 17:26 | 36.43975 | 28.40620 | 4010 ft | 235 kts | 334° |
| 2026-04-27 17:26 | 36.45201 | 28.39291 | 3759 ft | 234 kts | 302° |
| 2026-04-27 17:27 | 36.45691 | 28.37382 | 3531 ft | 234 kts | 278° |
| 2026-04-27 17:27 | 36.45844 | 28.35406 | 3295 ft | 233 kts | 276° |
| 2026-04-27 17:27 | 36.45967 | 28.33382 | 3104 ft | 230 kts | 276° |
| 2026-04-27 17:27 | 36.46076 | 28.31431 | 2927 ft | 223 kts | 276° |
| 2026-04-27 17:28 | 36.46167 | 28.29568 | 2720 ft | 216 kts | 275° |
| 2026-04-27 17:28 | 36.46109 | 28.27737 | 2491 ft | 211 kts | 257° |
| 2026-04-27 17:28 | 36.45169 | 28.24432 | 2111 ft | 195 kts | 253° |
| 2026-04-27 17:29 | 36.44725 | 28.22899 | 1906 ft | 182 kts | 252° |
| 2026-04-27 17:29 | 36.44305 | 28.21473 | 1706 ft | 170 kts | 252° |
| 2026-04-27 17:29 | 36.43918 | 28.20155 | 1548 ft | 156 kts | 253° |
| 2026-04-27 17:29 | 36.43557 | 28.18926 | 1298 ft | 147 kts | 252° |
| 2026-04-27 17:30 | 36.43207 | 28.17748 | 1102 ft | 146 kts | 251° |
| 2026-04-27 17:30 | 36.42514 | 28.15355 | 828 ft | 149 kts | 250° |
| 2026-04-27 17:30 | 36.42164 | 28.14150 | 662 ft | 147 kts | 250° |
| 2026-04-27 17:31 | 36.41804 | 28.12955 | 486 ft | 149 kts | 250° |
| 2026-04-27 17:31 | 36.41458 | 28.11752 | 304 ft | 147 kts | 249° |
| 2026-04-27 17:31 | 36.41107 | 28.10556 | 95 ft | 147 kts | 250° |
| 2026-04-27 17:31 | 36.40771 | 28.09430 | 31 ft | 128 kts | 249° |
| 2026-04-27 17:32 | 36.40521 | 28.08565 | 26 ft | 77 kts | 250° |
| 2026-04-27 17:32 | 36.40300 | 28.07979 | 27 ft | 22 kts | 226° |
| 2026-04-27 17:32 | 36.40204 | 28.07876 | 27 ft | 13 kts | 221° |
| 2026-04-27 17:33 | 36.40145 | 28.07904 | 27 ft | 13 kts | 82° |
| 2026-04-27 17:33 | 36.40178 | 28.08013 | 27 ft | 15 kts | 70° |
| 2026-04-27 17:33 | 36.40219 | 28.08153 | 27 ft | 20 kts | 70° |
| 2026-04-27 17:33 | 36.40272 | 28.08330 | 27 ft | 24 kts | 69° |
| 2026-04-27 17:34 | 36.40334 | 28.08543 | 27 ft | 28 kts | 70° |
| 2026-04-27 17:34 | 36.40397 | 28.08780 | 27 ft | 28 kts | 81° |
| 2026-04-27 17:34 | 36.40397 | 28.08969 | 27 ft | 20 kts | 84° |
| 2026-04-27 17:34 | 36.40422 | 28.09078 | 27 ft | 8 kts | 69° |
| 2026-04-27 17:35 | 36.40399 | 28.09122 | 27 ft | 7 kts | 160° |
| 2026-04-27 17:35 | 36.40366 | 28.09137 | 27 ft | 1 kts | 160° |
| 2026-04-27 17:35 | 36.40365 | 28.09138 | 27 ft | 0 kts | 160° |